< < Back
Terminal Aerodrome Forecast


Current Version              Previous Versions:   1  2  3  4  5  6  7  8  9  

Terminal Aerodrome Forecast

332
FTUS42 KCHS 030535
TAFSAV
TAF
KSAV 030535Z 0306/0406 VRB03KT P6SM SCT025 BKN150
      TEMPO 0310/0313 6SM BR FEW003 BKN025
     FM031400 VRB05KT P6SM SCT030 BKN250=



Latest METAR

124
SAUS80 KWBC 030600 RRA
MTRSAV
METAR KSAV 030553Z AUTO 01004KT 9SM CLR 24/23 A2998 RMK AO2 SLP150
T02440228 10250 20239 56010 TSNO $


USA.gov is the U.S. government's official web portal to all federal, state and local government web resources and services.